sensor_id;sensor_type;location;lat;lon;timestamp;P1;durP1;ratioP1;P2;durP2;ratioP2
32347;SDS011;18821;44.800;10.326;2023-04-03T00:01:14;2.67;;;1.70;;
32347;SDS011;18821;44.800;10.326;2023-04-03T00:03:40;3.42;;;1.90;;
32347;SDS011;18821;44.800;10.326;2023-04-03T00:06:07;4.18;;;2.22;;
32347;SDS011;18821;44.800;10.326;2023-04-03T00:08:35;4.95;;;1.90;;
32347;SDS011;18821;44.800;10.326;2023-04-03T00:11:02;2.40;;;1.88;;
32347;SDS011;18821;44.800;10.326;2023-04-03T00:13:28;2.58;;;1.85;;
32347;SDS011;18821;44.800;10.326;2023-04-03T00:15:55;5.57;;;2.42;;
32347;SDS011;18821;44.800;10.326;2023-04-03T00:18:21;3.13;;;2.15;;
32347;SDS011;18821;44.800;10.326;2023-04-03T00:20:47;3.97;;;2.22;;
32347;SDS011;18821;44.800;10.326;2023-04-03T00:23:14;5.03;;;2.65;;
32347;SDS011;18821;44.800;10.326;2023-04-03T00:25:40;5.22;;;2.50;;
32347;SDS011;18821;44.800;10.326;2023-04-03T00:28:06;3.63;;;2.28;;
32347;SDS011;18821;44.800;10.326;2023-04-03T00:30:32;4.63;;;2.72;;
32347;SDS011;18821;44.800;10.326;2023-04-03T00:32:58;5.25;;;2.42;;
32347;SDS011;18821;44.800;10.326;2023-04-03T00:35:25;7.18;;;2.55;;
32347;SDS011;18821;44.800;10.326;2023-04-03T00:37:52;3.67;;;2.25;;
32347;SDS011;18821;44.800;10.326;2023-04-03T00:40:19;7.25;;;2.63;;
32347;SDS011;18821;44.800;10.326;2023-04-03T00:42:46;4.93;;;2.72;;
32347;SDS011;18821;44.800;10.326;2023-04-03T00:47:45;6.57;;;2.97;;
32347;SDS011;18821;44.800;10.326;2023-04-03T00:50:11;4.00;;;2.28;;
32347;SDS011;18821;44.800;10.326;2023-04-03T00:52:37;3.33;;;2.65;;
32347;SDS011;18821;44.800;10.326;2023-04-03T00:55:05;3.85;;;2.08;;
32347;SDS011;18821;44.800;10.326;2023-04-03T00:57:33;4.00;;;2.60;;
32347;SDS011;18821;44.800;10.326;2023-04-03T01:00:06;3.08;;;1.90;;
32347;SDS011;18821;44.800;10.326;2023-04-03T01:02:35;4.38;;;2.28;;
32347;SDS011;18821;44.800;10.326;2023-04-03T01:05:01;4.80;;;2.47;;
32347;SDS011;18821;44.800;10.326;2023-04-03T01:07:29;5.20;;;3.03;;
32347;SDS011;18821;44.800;10.326;2023-04-03T01:09:57;3.72;;;2.08;;
32347;SDS011;18821;44.800;10.326;2023-04-03T01:12:32;3.05;;;1.88;;
32347;SDS011;18821;44.800;10.326;2023-04-03T01:25:54;4.30;;;2.25;;
32347;SDS011;18821;44.800;10.326;2023-04-03T01:28:22;4.40;;;2.17;;
32347;SDS011;18821;44.800;10.326;2023-04-03T01:33:42;5.65;;;2.28;;
32347;SDS011;18821;44.800;10.326;2023-04-03T01:36:09;4.40;;;2.65;;
32347;SDS011;18821;44.800;10.326;2023-04-03T01:38:39;9.13;;;2.90;;
32347;SDS011;18821;44.800;10.326;2023-04-03T01:41:05;3.72;;;2.38;;
32347;SDS011;18821;44.800;10.326;2023-04-03T01:43:31;4.18;;;2.42;;
32347;SDS011;18821;44.800;10.326;2023-04-03T01:45:57;7.68;;;3.08;;
32347;SDS011;18821;44.800;10.326;2023-04-03T01:48:23;5.07;;;2.50;;
32347;SDS011;18821;44.800;10.326;2023-04-03T01:50:49;5.07;;;2.25;;
32347;SDS011;18821;44.800;10.326;2023-04-03T01:53:15;5.68;;;2.42;;
32347;SDS011;18821;44.800;10.326;2023-04-03T01:55:41;3.88;;;2.63;;
32347;SDS011;18821;44.800;10.326;2023-04-03T01:58:07;4.15;;;2.58;;
32347;SDS011;18821;44.800;10.326;2023-04-03T02:00:33;3.40;;;2.63;;
32347;SDS011;18821;44.800;10.326;2023-04-03T02:02:59;4.32;;;3.17;;
32347;SDS011;18821;44.800;10.326;2023-04-03T02:05:28;7.03;;;2.85;;
32347;SDS011;18821;44.800;10.326;2023-04-03T02:07:55;5.80;;;2.70;;
32347;SDS011;18821;44.800;10.326;2023-04-03T02:10:21;4.63;;;2.55;;
32347;SDS011;18821;44.800;10.326;2023-04-03T02:12:47;5.15;;;2.90;;
32347;SDS011;18821;44.800;10.326;2023-04-03T02:15:13;4.00;;;2.33;;
32347;SDS011;18821;44.800;10.326;2023-04-03T02:17:40;6.28;;;2.40;;
32347;SDS011;18821;44.800;10.326;2023-04-03T02:20:06;4.13;;;2.83;;
32347;SDS011;18821;44.800;10.326;2023-04-03T02:22:32;4.10;;;2.63;;
32347;SDS011;18821;44.800;10.326;2023-04-03T02:24:58;6.05;;;2.45;;
32347;SDS011;18821;44.800;10.326;2023-04-03T02:27:24;6.82;;;2.70;;
32347;SDS011;18821;44.800;10.326;2023-04-03T02:29:50;5.97;;;2.85;;
32347;SDS011;18821;44.800;10.326;2023-04-03T02:32:16;4.85;;;3.13;;
32347;SDS011;18821;44.800;10.326;2023-04-03T02:34:43;4.88;;;3.20;;
32347;SDS011;18821;44.800;10.326;2023-04-03T02:37:12;4.35;;;2.67;;
32347;SDS011;18821;44.800;10.326;2023-04-03T02:39:38;5.82;;;2.78;;
32347;SDS011;18821;44.800;10.326;2023-04-03T02:42:04;4.78;;;2.65;;
32347;SDS011;18821;44.800;10.326;2023-04-03T02:44:30;3.53;;;2.75;;
32347;SDS011;18821;44.800;10.326;2023-04-03T02:46:56;4.63;;;2.47;;
32347;SDS011;18821;44.800;10.326;2023-04-03T02:49:22;5.53;;;2.83;;
32347;SDS011;18821;44.800;10.326;2023-04-03T02:51:48;4.07;;;2.75;;
32347;SDS011;18821;44.800;10.326;2023-04-03T02:54:16;4.03;;;2.78;;
32347;SDS011;18821;44.800;10.326;2023-04-03T02:56:47;3.20;;;2.40;;
32347;SDS011;18821;44.800;10.326;2023-04-03T02:59:13;4.45;;;2.60;;
32347;SDS011;18821;44.800;10.326;2023-04-03T03:01:40;3.80;;;2.33;;
32347;SDS011;18821;44.800;10.326;2023-04-03T03:04:06;4.60;;;2.60;;
32347;SDS011;18821;44.800;10.326;2023-04-03T03:06:32;3.90;;;2.90;;
32347;SDS011;18821;44.800;10.326;2023-04-03T03:08:58;6.38;;;3.03;;
32347;SDS011;18821;44.800;10.326;2023-04-03T03:11:24;4.40;;;2.65;;
32347;SDS011;18821;44.800;10.326;2023-04-03T03:13:52;5.60;;;2.50;;
32347;SDS011;18821;44.800;10.326;2023-04-03T03:16:18;7.15;;;2.67;;
32347;SDS011;18821;44.800;10.326;2023-04-03T03:18:43;6.05;;;2.55;;
32347;SDS011;18821;44.800;10.326;2023-04-03T03:21:09;3.60;;;2.50;;
32347;SDS011;18821;44.800;10.326;2023-04-03T03:23:36;6.60;;;2.53;;
32347;SDS011;18821;44.800;10.326;2023-04-03T03:26:03;4.00;;;2.67;;
32347;SDS011;18821;44.800;10.326;2023-04-03T03:28:33;8.27;;;2.83;;
32347;SDS011;18821;44.800;10.326;2023-04-03T03:31:02;6.03;;;2.47;;
32347;SDS011;18821;44.800;10.326;2023-04-03T03:33:30;6.10;;;2.58;;
32347;SDS011;18821;44.800;10.326;2023-04-03T03:35:56;4.32;;;2.90;;
32347;SDS011;18821;44.800;10.326;2023-04-03T03:38:22;4.13;;;2.65;;
32347;SDS011;18821;44.800;10.326;2023-04-03T03:40:49;6.40;;;2.70;;
32347;SDS011;18821;44.800;10.326;2023-04-03T03:43:17;3.58;;;2.85;;
32347;SDS011;18821;44.800;10.326;2023-04-03T03:45:48;3.15;;;2.05;;
32347;SDS011;18821;44.800;10.326;2023-04-03T03:48:16;4.88;;;3.10;;
32347;SDS011;18821;44.800;10.326;2023-04-03T03:50:42;4.97;;;2.80;;
32347;SDS011;18821;44.800;10.326;2023-04-03T03:53:08;4.38;;;2.72;;
32347;SDS011;18821;44.800;10.326;2023-04-03T03:55:35;9.50;;;3.42;;
32347;SDS011;18821;44.800;10.326;2023-04-03T03:58:01;7.88;;;2.83;;
32347;SDS011;18821;44.800;10.326;2023-04-03T04:00:29;4.70;;;2.90;;
32347;SDS011;18821;44.800;10.326;2023-04-03T04:02:56;5.93;;;3.30;;
32347;SDS011;18821;44.800;10.326;2023-04-03T04:05:23;3.65;;;2.50;;
32347;SDS011;18821;44.800;10.326;2023-04-03T04:07:50;5.30;;;3.13;;
32347;SDS011;18821;44.800;10.326;2023-04-03T04:10:16;4.53;;;2.90;;
32347;SDS011;18821;44.800;10.326;2023-04-03T04:12:44;6.22;;;3.47;;
32347;SDS011;18821;44.800;10.326;2023-04-03T04:15:11;4.93;;;3.20;;
32347;SDS011;18821;44.800;10.326;2023-04-03T04:17:37;6.28;;;2.85;;
32347;SDS011;18821;44.800;10.326;2023-04-03T04:20:08;4.35;;;3.08;;
32347;SDS011;18821;44.800;10.326;2023-04-03T04:22:35;8.73;;;3.28;;
32347;SDS011;18821;44.800;10.326;2023-04-03T04:25:03;4.75;;;2.70;;
32347;SDS011;18821;44.800;10.326;2023-04-03T04:27:29;4.85;;;3.35;;
32347;SDS011;18821;44.800;10.326;2023-04-03T04:29:55;4.85;;;3.05;;
32347;SDS011;18821;44.800;10.326;2023-04-03T04:32:21;4.05;;;3.00;;
32347;SDS011;18821;44.800;10.326;2023-04-03T04:34:48;7.13;;;3.30;;
32347;SDS011;18821;44.800;10.326;2023-04-03T04:37:14;5.47;;;2.88;;
32347;SDS011;18821;44.800;10.326;2023-04-03T04:39:40;4.25;;;3.67;;
32347;SDS011;18821;44.800;10.326;2023-04-03T04:42:06;4.80;;;3.10;;
32347;SDS011;18821;44.800;10.326;2023-04-03T04:44:39;7.20;;;2.83;;
32347;SDS011;18821;44.800;10.326;2023-04-03T04:47:05;4.78;;;3.25;;
32347;SDS011;18821;44.800;10.326;2023-04-03T04:49:32;8.35;;;3.35;;
32347;SDS011;18821;44.800;10.326;2023-04-03T04:51:58;12.35;;;3.40;;
32347;SDS011;18821;44.800;10.326;2023-04-03T04:54:28;5.60;;;3.67;;
32347;SDS011;18821;44.800;10.326;2023-04-03T04:56:54;6.57;;;3.92;;
32347;SDS011;18821;44.800;10.326;2023-04-03T04:59:21;5.57;;;3.70;;
32347;SDS011;18821;44.800;10.326;2023-04-03T05:01:47;8.50;;;3.85;;
32347;SDS011;18821;44.800;10.326;2023-04-03T05:04:15;10.05;;;4.10;;
32347;SDS011;18821;44.800;10.326;2023-04-03T05:06:43;10.60;;;4.38;;
32347;SDS011;18821;44.800;10.326;2023-04-03T05:09:14;6.88;;;4.20;;
32347;SDS011;18821;44.800;10.326;2023-04-03T05:11:42;11.10;;;4.50;;
32347;SDS011;18821;44.800;10.326;2023-04-03T05:14:09;12.32;;;4.28;;
32347;SDS011;18821;44.800;10.326;2023-04-03T05:16:36;7.78;;;4.20;;
32347;SDS011;18821;44.800;10.326;2023-04-03T05:19:02;9.80;;;4.35;;
32347;SDS011;18821;44.800;10.326;2023-04-03T05:21:29;7.25;;;4.43;;
32347;SDS011;18821;44.800;10.326;2023-04-03T05:23:59;8.85;;;4.68;;
32347;SDS011;18821;44.800;10.326;2023-04-03T05:26:29;8.77;;;4.80;;
32347;SDS011;18821;44.800;10.326;2023-04-03T05:28:56;9.02;;;5.72;;
32347;SDS011;18821;44.800;10.326;2023-04-03T05:31:22;10.32;;;5.78;;
32347;SDS011;18821;44.800;10.326;2023-04-03T05:33:49;11.82;;;4.60;;
32347;SDS011;18821;44.800;10.326;2023-04-03T05:36:17;7.38;;;4.45;;
32347;SDS011;18821;44.800;10.326;2023-04-03T05:38:48;13.10;;;5.88;;
32347;SDS011;18821;44.800;10.326;2023-04-03T05:41:15;6.50;;;3.92;;
32347;SDS011;18821;44.800;10.326;2023-04-03T05:43:43;11.98;;;5.20;;
32347;SDS011;18821;44.800;10.326;2023-04-03T05:46:11;9.73;;;5.82;;
32347;SDS011;18821;44.800;10.326;2023-04-03T05:48:44;10.93;;;5.05;;
32347;SDS011;18821;44.800;10.326;2023-04-03T05:51:18;12.90;;;4.65;;
32347;SDS011;18821;44.800;10.326;2023-04-03T05:53:50;7.55;;;4.03;;
32347;SDS011;18821;44.800;10.326;2023-04-03T05:56:21;6.25;;;3.60;;
32347;SDS011;18821;44.800;10.326;2023-04-03T05:58:47;6.53;;;3.83;;
32347;SDS011;18821;44.800;10.326;2023-04-03T06:01:13;11.48;;;5.22;;
32347;SDS011;18821;44.800;10.326;2023-04-03T06:03:40;10.02;;;4.40;;
32347;SDS011;18821;44.800;10.326;2023-04-03T06:06:10;9.65;;;4.22;;
32347;SDS011;18821;44.800;10.326;2023-04-03T06:08:39;5.88;;;3.72;;
32347;SDS011;18821;44.800;10.326;2023-04-03T06:11:05;6.47;;;3.55;;
32347;SDS011;18821;44.800;10.326;2023-04-03T06:13:32;9.90;;;4.50;;
32347;SDS011;18821;44.800;10.326;2023-04-03T06:15:58;7.80;;;4.63;;
32347;SDS011;18821;44.800;10.326;2023-04-03T06:18:24;8.90;;;4.25;;
32347;SDS011;18821;44.800;10.326;2023-04-03T06:20:50;6.22;;;3.83;;
32347;SDS011;18821;44.800;10.326;2023-04-03T06:23:16;6.43;;;3.33;;
32347;SDS011;18821;44.800;10.326;2023-04-03T06:25:43;12.43;;;3.83;;
32347;SDS011;18821;44.800;10.326;2023-04-03T06:28:09;13.00;;;4.75;;
32347;SDS011;18821;44.800;10.326;2023-04-03T06:30:35;9.32;;;3.92;;
32347;SDS011;18821;44.800;10.326;2023-04-03T06:33:02;7.53;;;3.95;;
32347;SDS011;18821;44.800;10.326;2023-04-03T06:35:28;9.13;;;4.90;;
32347;SDS011;18821;44.800;10.326;2023-04-03T06:37:55;9.00;;;4.47;;
32347;SDS011;18821;44.800;10.326;2023-04-03T06:40:23;10.77;;;4.65;;
32347;SDS011;18821;44.800;10.326;2023-04-03T06:42:50;7.55;;;5.03;;
32347;SDS011;18821;44.800;10.326;2023-04-03T06:45:18;11.55;;;5.72;;
32347;SDS011;18821;44.800;10.326;2023-04-03T06:47:44;12.90;;;5.30;;
32347;SDS011;18821;44.800;10.326;2023-04-03T06:50:11;13.32;;;5.00;;
32347;SDS011;18821;44.800;10.326;2023-04-03T06:52:39;9.70;;;5.25;;
32347;SDS011;18821;44.800;10.326;2023-04-03T06:55:05;13.00;;;6.18;;
32347;SDS011;18821;44.800;10.326;2023-04-03T06:57:32;10.13;;;5.50;;
32347;SDS011;18821;44.800;10.326;2023-04-03T06:59:58;11.63;;;5.43;;
32347;SDS011;18821;44.800;10.326;2023-04-03T07:02:24;11.98;;;6.68;;
32347;SDS011;18821;44.800;10.326;2023-04-03T07:04:50;18.80;;;6.45;;
32347;SDS011;18821;44.800;10.326;2023-04-03T07:07:16;11.30;;;5.93;;
32347;SDS011;18821;44.800;10.326;2023-04-03T07:09:43;17.77;;;9.98;;
32347;SDS011;18821;44.800;10.326;2023-04-03T07:12:08;12.07;;;8.10;;
32347;SDS011;18821;44.800;10.326;2023-04-03T07:14:35;14.32;;;7.93;;
32347;SDS011;18821;44.800;10.326;2023-04-03T07:17:01;15.93;;;8.13;;
32347;SDS011;18821;44.800;10.326;2023-04-03T07:19:27;12.52;;;8.35;;
32347;SDS011;18821;44.800;10.326;2023-04-03T07:21:53;16.33;;;9.00;;
32347;SDS011;18821;44.800;10.326;2023-04-03T07:24:19;18.70;;;8.82;;
32347;SDS011;18821;44.800;10.326;2023-04-03T07:26:48;15.10;;;9.23;;
32347;SDS011;18821;44.800;10.326;2023-04-03T07:29:15;20.58;;;9.50;;
32347;SDS011;18821;44.800;10.326;2023-04-03T07:31:41;15.88;;;9.90;;
32347;SDS011;18821;44.800;10.326;2023-04-03T07:34:07;14.77;;;10.38;;
32347;SDS011;18821;44.800;10.326;2023-04-03T07:36:33;17.08;;;10.43;;
32347;SDS011;18821;44.800;10.326;2023-04-03T07:38:59;15.98;;;10.32;;
32347;SDS011;18821;44.800;10.326;2023-04-03T07:41:25;16.23;;;10.20;;
32347;SDS011;18821;44.800;10.326;2023-04-03T07:43:51;15.52;;;10.25;;
32347;SDS011;18821;44.800;10.326;2023-04-03T07:46:19;14.07;;;8.98;;
32347;SDS011;18821;44.800;10.326;2023-04-03T07:48:45;15.57;;;8.95;;
32347;SDS011;18821;44.800;10.326;2023-04-03T07:51:11;14.52;;;9.90;;
32347;SDS011;18821;44.800;10.326;2023-04-03T07:53:38;16.30;;;8.80;;
32347;SDS011;18821;44.800;10.326;2023-04-03T07:56:04;12.80;;;8.93;;
32347;SDS011;18821;44.800;10.326;2023-04-03T07:58:30;12.60;;;8.85;;
32347;SDS011;18821;44.800;10.326;2023-04-03T08:00:56;14.32;;;8.60;;
32347;SDS011;18821;44.800;10.326;2023-04-03T08:03:22;16.55;;;9.30;;
32347;SDS011;18821;44.800;10.326;2023-04-03T08:05:48;15.98;;;10.10;;
32347;SDS011;18821;44.800;10.326;2023-04-03T08:08:16;15.95;;;9.63;;
32347;SDS011;18821;44.800;10.326;2023-04-03T08:10:43;16.52;;;8.80;;
32347;SDS011;18821;44.800;10.326;2023-04-03T08:13:14;11.75;;;9.10;;
32347;SDS011;18821;44.800;10.326;2023-04-03T08:15:40;13.45;;;8.45;;
32347;SDS011;18821;44.800;10.326;2023-04-03T08:18:06;13.95;;;8.70;;
32347;SDS011;18821;44.800;10.326;2023-04-03T08:20:32;13.75;;;8.75;;
32347;SDS011;18821;44.800;10.326;2023-04-03T08:22:58;17.75;;;10.13;;
32347;SDS011;18821;44.800;10.326;2023-04-03T08:25:24;15.63;;;9.15;;
32347;SDS011;18821;44.800;10.326;2023-04-03T08:27:50;14.27;;;8.65;;
32347;SDS011;18821;44.800;10.326;2023-04-03T08:30:15;14.32;;;9.15;;
32347;SDS011;18821;44.800;10.326;2023-04-03T08:32:42;12.23;;;8.60;;
32347;SDS011;18821;44.800;10.326;2023-04-03T08:35:09;12.98;;;9.40;;
32347;SDS011;18821;44.800;10.326;2023-04-03T08:37:36;14.80;;;8.65;;
32347;SDS011;18821;44.800;10.326;2023-04-03T08:40:05;24.95;;;9.30;;
32347;SDS011;18821;44.800;10.326;2023-04-03T08:45:15;14.45;;;9.23;;
32347;SDS011;18821;44.800;10.326;2023-04-03T08:48:05;14.90;;;8.82;;
32347;SDS011;18821;44.800;10.326;2023-04-03T08:50:40;16.20;;;8.30;;
32347;SDS011;18821;44.800;10.326;2023-04-03T08:53:17;14.45;;;8.10;;
32347;SDS011;18821;44.800;10.326;2023-04-03T08:55:49;14.80;;;9.05;;
32347;SDS011;18821;44.800;10.326;2023-04-03T08:58:19;14.52;;;8.48;;
32347;SDS011;18821;44.800;10.326;2023-04-03T09:01:10;13.68;;;8.70;;
32347;SDS011;18821;44.800;10.326;2023-04-03T09:03:46;15.25;;;8.70;;
32347;SDS011;18821;44.800;10.326;2023-04-03T09:06:13;13.75;;;9.35;;
32347;SDS011;18821;44.800;10.326;2023-04-03T09:14:57;12.02;;;8.95;;
32347;SDS011;18821;44.800;10.326;2023-04-03T09:22:45;11.93;;;7.88;;
32347;SDS011;18821;44.800;10.326;2023-04-03T09:25:21;13.73;;;9.23;;
32347;SDS011;18821;44.800;10.326;2023-04-03T09:27:51;13.45;;;9.70;;
32347;SDS011;18821;44.800;10.326;2023-04-03T09:30:18;18.45;;;9.02;;
32347;SDS011;18821;44.800;10.326;2023-04-03T09:32:53;10.38;;;7.20;;
32347;SDS011;18821;44.800;10.326;2023-04-03T09:35:25;12.98;;;6.60;;
32347;SDS011;18821;44.800;10.326;2023-04-03T09:40:47;11.43;;;7.55;;
32347;SDS011;18821;44.800;10.326;2023-04-03T09:45:42;11.68;;;7.00;;
32347;SDS011;18821;44.800;10.326;2023-04-03T09:51:00;9.07;;;4.25;;
32347;SDS011;18821;44.800;10.326;2023-04-03T09:56:01;6.95;;;4.40;;
32347;SDS011;18821;44.800;10.326;2023-04-03T09:58:51;10.65;;;5.72;;
32347;SDS011;18821;44.800;10.326;2023-04-03T10:01:31;11.23;;;6.72;;
32347;SDS011;18821;44.800;10.326;2023-04-03T10:04:09;8.88;;;5.07;;
32347;SDS011;18821;44.800;10.326;2023-04-03T10:06:39;7.85;;;4.63;;
32347;SDS011;18821;44.800;10.326;2023-04-03T10:09:28;8.07;;;3.85;;
32347;SDS011;18821;44.800;10.326;2023-04-03T10:12:08;10.40;;;4.65;;
32347;SDS011;18821;44.800;10.326;2023-04-03T10:14:40;7.65;;;4.03;;
32347;SDS011;18821;44.800;10.326;2023-04-03T10:23:21;6.97;;;4.22;;
32347;SDS011;18821;44.800;10.326;2023-04-03T10:28:45;4.47;;;3.80;;
32347;SDS011;18821;44.800;10.326;2023-04-03T10:31:40;5.97;;;3.75;;
32347;SDS011;18821;44.800;10.326;2023-04-03T10:42:35;6.88;;;4.18;;
32347;SDS011;18821;44.800;10.326;2023-04-03T10:58:32;7.90;;;3.60;;
32347;SDS011;18821;44.800;10.326;2023-04-03T11:01:16;9.73;;;4.13;;
32347;SDS011;18821;44.800;10.326;2023-04-03T11:03:48;6.05;;;3.70;;
32347;SDS011;18821;44.800;10.326;2023-04-03T11:06:19;6.43;;;4.40;;
32347;SDS011;18821;44.800;10.326;2023-04-03T11:11:33;4.55;;;3.13;;
32347;SDS011;18821;44.800;10.326;2023-04-03T11:14:02;6.60;;;3.63;;
32347;SDS011;18821;44.800;10.326;2023-04-03T11:16:48;4.80;;;2.92;;
32347;SDS011;18821;44.800;10.326;2023-04-03T11:19:29;4.88;;;2.88;;
32347;SDS011;18821;44.800;10.326;2023-04-03T11:22:03;2.80;;;2.40;;
32347;SDS011;18821;44.800;10.326;2023-04-03T11:24:36;3.28;;;2.50;;
32347;SDS011;18821;44.800;10.326;2023-04-03T11:27:08;7.68;;;2.80;;
32347;SDS011;18821;44.800;10.326;2023-04-03T11:29:44;3.03;;;2.10;;
32347;SDS011;18821;44.800;10.326;2023-04-03T11:32:28;12.15;;;2.65;;
32347;SDS011;18821;44.800;10.326;2023-04-03T11:35:02;4.95;;;1.80;;
32347;SDS011;18821;44.800;10.326;2023-04-03T11:37:39;1.75;;;1.52;;
32347;SDS011;18821;44.800;10.326;2023-04-03T11:42:54;4.70;;;2.25;;
32347;SDS011;18821;44.800;10.326;2023-04-03T11:50:48;4.78;;;1.33;;
32347;SDS011;18821;44.800;10.326;2023-04-03T11:58:30;2.47;;;1.10;;
32347;SDS011;18821;44.800;10.326;2023-04-03T12:06:41;2.55;;;1.30;;
32347;SDS011;18821;44.800;10.326;2023-04-03T12:08:46;2.83;;;1.38;;
32347;SDS011;18821;44.800;10.326;2023-04-03T12:11:22;5.22;;;1.20;;
32347;SDS011;18821;44.800;10.326;2023-04-03T12:24:40;3.40;;;1.33;;
32347;SDS011;18821;44.800;10.326;2023-04-03T12:27:31;3.78;;;1.55;;
32347;SDS011;18821;44.800;10.326;2023-04-03T12:48:25;2.75;;;1.52;;
32347;SDS011;18821;44.800;10.326;2023-04-03T12:50:53;4.80;;;1.40;;
32347;SDS011;18821;44.800;10.326;2023-04-03T12:53:21;2.90;;;1.75;;
32347;SDS011;18821;44.800;10.326;2023-04-03T12:55:55;3.85;;;1.35;;
32347;SDS011;18821;44.800;10.326;2023-04-03T12:58:41;5.30;;;1.35;;
32347;SDS011;18821;44.800;10.326;2023-04-03T13:01:14;4.40;;;0.88;;
32347;SDS011;18821;44.800;10.326;2023-04-03T13:03:44;8.18;;;1.60;;
32347;SDS011;18821;44.800;10.326;2023-04-03T13:06:21;4.72;;;1.30;;
32347;SDS011;18821;44.800;10.326;2023-04-03T13:08:53;6.47;;;1.60;;
32347;SDS011;18821;44.800;10.326;2023-04-03T13:11:26;2.90;;;1.27;;
32347;SDS011;18821;44.800;10.326;2023-04-03T13:14:01;2.47;;;1.55;;
32347;SDS011;18821;44.800;10.326;2023-04-03T13:16:31;4.50;;;1.45;;
32347;SDS011;18821;44.800;10.326;2023-04-03T13:18:58;6.68;;;1.50;;
32347;SDS011;18821;44.800;10.326;2023-04-03T13:21:26;5.93;;;2.38;;
32347;SDS011;18821;44.800;10.326;2023-04-03T13:23:55;2.75;;;1.98;;
32347;SDS011;18821;44.800;10.326;2023-04-03T13:26:24;2.97;;;1.83;;
32347;SDS011;18821;44.800;10.326;2023-04-03T13:28:53;6.25;;;1.90;;
32347;SDS011;18821;44.800;10.326;2023-04-03T13:31:23;3.00;;;1.70;;
32347;SDS011;18821;44.800;10.326;2023-04-03T13:36:35;5.28;;;2.20;;
32347;SDS011;18821;44.800;10.326;2023-04-03T13:41:30;4.80;;;2.78;;
32347;SDS011;18821;44.800;10.326;2023-04-03T13:46:50;7.93;;;2.97;;
32347;SDS011;18821;44.800;10.326;2023-04-03T13:49:22;10.13;;;3.60;;
32347;SDS011;18821;44.800;10.326;2023-04-03T13:51:58;3.75;;;2.67;;
32347;SDS011;18821;44.800;10.326;2023-04-03T13:54:32;4.47;;;2.38;;
32347;SDS011;18821;44.800;10.326;2023-04-03T13:57:01;14.60;;;2.97;;
32347;SDS011;18821;44.800;10.326;2023-04-03T13:59:30;3.00;;;2.20;;
32347;SDS011;18821;44.800;10.326;2023-04-03T14:04:28;4.53;;;2.20;;
32347;SDS011;18821;44.800;10.326;2023-04-03T14:06:57;3.05;;;1.75;;
32347;SDS011;18821;44.800;10.326;2023-04-03T14:09:24;6.18;;;2.55;;
32347;SDS011;18821;44.800;10.326;2023-04-03T14:11:53;3.10;;;2.30;;
32347;SDS011;18821;44.800;10.326;2023-04-03T14:14:23;2.25;;;1.48;;
32347;SDS011;18821;44.800;10.326;2023-04-03T14:16:54;5.60;;;2.08;;
32347;SDS011;18821;44.800;10.326;2023-04-03T14:19:28;5.20;;;1.63;;
32347;SDS011;18821;44.800;10.326;2023-04-03T14:21:56;9.75;;;2.45;;
32347;SDS011;18821;44.800;10.326;2023-04-03T14:24:22;3.60;;;1.77;;
32347;SDS011;18821;44.800;10.326;2023-04-03T14:26:50;3.47;;;1.67;;
32347;SDS011;18821;44.800;10.326;2023-04-03T14:29:18;8.70;;;2.00;;
32347;SDS011;18821;44.800;10.326;2023-04-03T14:31:46;4.22;;;1.65;;
32347;SDS011;18821;44.800;10.326;2023-04-03T14:34:13;6.22;;;2.17;;
32347;SDS011;18821;44.800;10.326;2023-04-03T14:36:40;3.40;;;2.03;;
32347;SDS011;18821;44.800;10.326;2023-04-03T14:39:10;6.30;;;1.55;;
32347;SDS011;18821;44.800;10.326;2023-04-03T14:41:42;10.25;;;1.92;;
32347;SDS011;18821;44.800;10.326;2023-04-03T14:44:08;2.53;;;1.60;;
32347;SDS011;18821;44.800;10.326;2023-04-03T14:46:35;8.73;;;2.70;;
32347;SDS011;18821;44.800;10.326;2023-04-03T14:49:03;3.50;;;1.58;;
32347;SDS011;18821;44.800;10.326;2023-04-03T14:51:37;4.97;;;1.75;;
32347;SDS011;18821;44.800;10.326;2023-04-03T14:54:03;3.38;;;1.77;;
32347;SDS011;18821;44.800;10.326;2023-04-03T14:56:31;4.25;;;1.48;;
32347;SDS011;18821;44.800;10.326;2023-04-03T14:59:00;4.40;;;1.63;;
32347;SDS011;18821;44.800;10.326;2023-04-03T15:01:27;1.73;;;0.98;;
32347;SDS011;18821;44.800;10.326;2023-04-03T15:03:54;2.90;;;1.50;;
32347;SDS011;18821;44.800;10.326;2023-04-03T15:06:20;4.32;;;1.27;;
32347;SDS011;18821;44.800;10.326;2023-04-03T15:08:46;3.10;;;1.20;;
32347;SDS011;18821;44.800;10.326;2023-04-03T15:11:13;7.38;;;1.17;;
32347;SDS011;18821;44.800;10.326;2023-04-03T15:13:40;10.02;;;1.90;;
32347;SDS011;18821;44.800;10.326;2023-04-03T15:16:11;4.30;;;1.52;;
32347;SDS011;18821;44.800;10.326;2023-04-03T15:21:08;4.63;;;1.00;;
32347;SDS011;18821;44.800;10.326;2023-04-03T15:23:35;8.75;;;1.52;;
32347;SDS011;18821;44.800;10.326;2023-04-03T15:26:00;1.50;;;0.90;;
32347;SDS011;18821;44.800;10.326;2023-04-03T15:28:40;2.15;;;1.02;;
32347;SDS011;18821;44.800;10.326;2023-04-03T15:31:08;1.98;;;0.80;;
32347;SDS011;18821;44.800;10.326;2023-04-03T15:33:35;3.53;;;0.98;;
32347;SDS011;18821;44.800;10.326;2023-04-03T15:36:02;3.47;;;1.20;;
32347;SDS011;18821;44.800;10.326;2023-04-03T15:38:29;4.70;;;1.00;;
32347;SDS011;18821;44.800;10.326;2023-04-03T15:40:55;4.43;;;1.00;;
32347;SDS011;18821;44.800;10.326;2023-04-03T15:43:21;2.13;;;0.93;;
32347;SDS011;18821;44.800;10.326;2023-04-03T15:45:47;1.27;;;0.70;;
32347;SDS011;18821;44.800;10.326;2023-04-03T15:48:15;3.78;;;0.93;;
32347;SDS011;18821;44.800;10.326;2023-04-03T15:50:42;3.63;;;1.00;;
32347;SDS011;18821;44.800;10.326;2023-04-03T15:53:08;0.98;;;0.90;;
32347;SDS011;18821;44.800;10.326;2023-04-03T15:55:36;2.78;;;0.90;;
32347;SDS011;18821;44.800;10.326;2023-04-03T15:58:02;2.47;;;0.70;;
32347;SDS011;18821;44.800;10.326;2023-04-03T16:00:29;2.60;;;0.80;;
32347;SDS011;18821;44.800;10.326;2023-04-03T16:02:58;4.82;;;1.25;;
32347;SDS011;18821;44.800;10.326;2023-04-03T16:05:29;3.50;;;0.88;;
32347;SDS011;18821;44.800;10.326;2023-04-03T16:07:56;1.85;;;1.00;;
32347;SDS011;18821;44.800;10.326;2023-04-03T16:10:23;6.95;;;0.93;;
32347;SDS011;18821;44.800;10.326;2023-04-03T16:12:50;3.65;;;0.90;;
32347;SDS011;18821;44.800;10.326;2023-04-03T16:15:16;1.98;;;0.60;;
32347;SDS011;18821;44.800;10.326;2023-04-03T16:17:42;2.75;;;1.40;;
32347;SDS011;18821;44.800;10.326;2023-04-03T16:20:09;4.22;;;1.27;;
32347;SDS011;18821;44.800;10.326;2023-04-03T16:22:36;3.00;;;0.80;;
32347;SDS011;18821;44.800;10.326;2023-04-03T16:25:03;1.45;;;0.82;;
32347;SDS011;18821;44.800;10.326;2023-04-03T16:27:30;5.88;;;1.13;;
32347;SDS011;18821;44.800;10.326;2023-04-03T16:29:56;4.55;;;0.90;;
32347;SDS011;18821;44.800;10.326;2023-04-03T16:32:23;3.83;;;1.13;;
32347;SDS011;18821;44.800;10.326;2023-04-03T16:34:51;4.05;;;1.40;;
32347;SDS011;18821;44.800;10.326;2023-04-03T16:37:19;2.13;;;0.90;;
32347;SDS011;18821;44.800;10.326;2023-04-03T16:39:45;2.35;;;1.13;;
32347;SDS011;18821;44.800;10.326;2023-04-03T16:42:11;5.28;;;1.08;;
32347;SDS011;18821;44.800;10.326;2023-04-03T16:44:37;3.22;;;1.52;;
32347;SDS011;18821;44.800;10.326;2023-04-03T16:47:05;3.70;;;1.23;;
32347;SDS011;18821;44.800;10.326;2023-04-03T16:49:32;5.20;;;1.13;;
32347;SDS011;18821;44.800;10.326;2023-04-03T16:51:59;2.35;;;1.00;;
32347;SDS011;18821;44.800;10.326;2023-04-03T16:54:26;5.72;;;0.85;;